ICTK1: Arkansas R At Wichita, KS

Data processed at Sat Dec 09 2017 23:46


All information presented herein is the property of the government of the United States of America and may be revised or deleted at any time without prior notice.
Dissemination of this information without the expressed written consent of the Public Affairs Office, Tulsa District U.S. Army Corps of Engineers is strictly prohibited.
These data are gathered electronically and, as presented, have not undergone any form of quality control. These data are not guaranteed to be valid or correct.
Go to home page.
Go to station list.

Upstream stations:

Downstream station:
Previous Day
Next Day
Current Day
    
SHEF ID:       ICTK1     ARKANSAS R AT WICHITA, KS
STATION TYPE:  

               PRECIP     STAGE  RIV-FLOW  BAT-LOAD
                   in        ft       cfs      volt
              Ccp-Rev   Ccp-Rev   Ccp-Rev   Ccp-Rev
(US/Central)
12/07 00:00      0.00      3.31       205     12.97
12/07 01:00      0.00      3.30       203     12.97
12/07 02:00      0.00      3.30       203     12.97
12/07 03:00      0.00      3.29       202     12.89
12/07 04:00      0.00      3.29       202     12.89
12/07 05:00      0.00      3.29       202     12.81
12/07 06:00      0.00      3.28       200     12.81
12/07 07:00      0.00      3.29       202     12.73
12/07 08:00      0.00      3.12       172     12.73
12/07 09:00      0.00      3.10       169     14.32
12/07 10:00      0.00      3.16       178     14.88
12/07 11:00      0.00      3.18       182     14.96
12/07 12:00      0.00      3.20       185     14.88
12/07 13:00      0.00      3.37       217     14.56
12/07 14:00      0.00      3.38       219     14.64
12/07 15:00      0.00      3.35       213     14.56
12/07 16:00      0.00      3.32       207     14.32
12/07 17:00      0.00      3.30       203     14.08
12/07 18:00      0.00      3.29       202     13.44
12/07 19:00      0.00      3.29       202     13.13
12/07 20:00      0.00      3.29       202     13.05
12/07 21:00      0.00      3.29       202     13.05
12/07 22:00      0.00      3.29       202     12.97
12/07 23:00      0.00      3.29       202     12.97